Time;durP1;ratioP1;P1;durP2;ratioP2;P2;SDS_P1;SDS_P2;PMS_P1;PMS_P2;Temp;Humidity;BMP_temperature;BMP_pressure;BME280_temperature;BME280_humidity;BME280_pressure;Samples;Min_cycle;Max_cycle;Signal;HPM_P1;HPM_P2
2024/04/12 00:02:11;;;;;;;8.10;5.45;;;14.20;99.90;;;;;;5371186;26;20001;-86
2024/04/12 00:04:39;;;;;;;7.68;4.82;;;14.10;99.90;;;;;;5381593;26;20000;-85
2024/04/12 00:07:13;;;;;;;6.60;4.78;;;14.10;99.90;;;;;;5351130;26;20452;-80
2024/04/12 00:09:52;;;;;;;7.63;4.90;;;14.10;99.90;;;;;;5372471;26;20014;-80
2024/04/12 00:12:25;;;;;;;7.25;4.35;;;14.20;99.90;;;;;;5368722;26;20074;-79
2024/04/12 00:15:15;;;;;;;7.25;4.63;;;14.10;99.90;;;;;;5374263;26;20011;-79
2024/04/12 00:17:44;;;;;;;9.70;6.20;;;14.10;99.90;;;;;;5376818;26;20007;-80
2024/04/12 00:20:12;;;;;;;9.32;5.60;;;14.10;99.90;;;;;;5346043;26;20503;-80
2024/04/12 00:22:39;;;;;;;10.35;5.10;;;14.10;99.90;;;;;;5361295;26;20410;-80
2024/04/12 00:25:06;;;;;;;10.55;7.07;;;14.10;99.90;;;;;;5351087;26;20016;-79
2024/04/12 00:27:33;;;;;;;13.43;7.40;;;14.10;99.90;;;;;;5373640;26;20033;-79
2024/04/12 00:30:03;;;;;;;8.38;5.70;;;14.10;99.90;;;;;;5338360;26;20016;-79
2024/04/12 00:32:35;;;;;;;8.35;5.28;;;14.10;99.90;;;;;;5382056;26;19996;-79
2024/04/12 00:35:06;;;;;;;10.57;5.88;;;14.10;99.90;;;;;;5353318;26;20110;-80
2024/04/12 00:37:33;;;;;;;11.88;6.53;;;14.10;99.90;;;;;;5352840;26;19996;-79
2024/04/12 00:40:07;;;;;;;11.25;6.38;;;14.10;99.90;;;;;;5350824;26;20015;-80
2024/04/12 00:42:34;;;;;;;8.18;5.78;;;14.10;99.90;;;;;;5355997;26;20004;-80
2024/04/12 00:45:11;;;;;;;9.75;6.97;;;14.10;99.90;;;;;;5380163;26;20000;-80
2024/04/12 00:47:41;;;;;;;8.82;5.63;;;14.10;99.90;;;;;;5355090;26;20403;-79
2024/04/12 00:50:15;;;;;;;9.93;5.50;;;14.10;99.90;;;;;;5379858;26;20286;-80
2024/04/12 00:52:43;;;;;;;11.90;7.38;;;14.10;99.90;;;;;;5381558;26;20008;-80
2024/04/12 00:55:13;;;;;;;10.82;7.25;;;14.10;99.90;;;;;;5379700;26;20015;-79
2024/04/12 00:57:40;;;;;;;9.02;5.55;;;14.10;99.90;;;;;;5352036;26;20004;-79
2024/04/12 01:00:10;;;;;;;8.65;5.55;;;14.10;99.90;;;;;;5350530;26;20004;-80
2024/04/12 01:02:42;;;;;;;8.88;5.72;;;14.10;99.90;;;;;;5408532;26;20051;-80
2024/04/12 01:05:17;;;;;;;10.10;6.45;;;14.10;99.90;;;;;;5379878;26;20010;-80
2024/04/12 01:07:55;;;;;;;12.07;7.65;;;14.10;99.90;;;;;;5379501;26;20397;-80
2024/04/12 01:10:24;;;;;;;11.50;7.07;;;14.10;99.90;;;;;;5379335;26;20082;-79
2024/04/12 01:12:55;;;;;;;13.55;8.20;;;14.10;99.90;;;;;;5408780;26;20012;-79
2024/04/12 01:15:37;;;;;;;12.95;8.32;;;14.10;99.90;;;;;;5379621;26;20008;-79
2024/04/12 01:18:11;;;;;;;10.23;6.45;;;14.10;99.90;;;;;;5379067;26;20079;-80
2024/04/12 01:20:39;;;;;;;9.38;6.00;;;14.10;99.90;;;;;;5381659;26;20000;-79
2024/04/12 01:23:07;;;;;;;11.93;7.70;;;14.10;99.90;;;;;;5347561;26;20001;-80
2024/04/12 01:25:34;;;;;;;15.43;9.43;;;14.10;99.90;;;;;;5331058;26;20341;-80
2024/04/12 01:28:09;;;;;;;13.80;9.05;;;14.00;99.90;;;;;;5381689;26;20008;-80
2024/04/12 01:30:39;;;;;;;14.88;8.73;;;14.10;99.90;;;;;;5353317;26;20375;-80
2024/04/12 01:33:08;;;;;;;9.75;6.55;;;14.10;99.90;;;;;;5382459;26;20022;-79
2024/04/12 01:35:36;;;;;;;12.27;7.20;;;14.10;99.90;;;;;;5382512;26;20038;-79
2024/04/12 01:38:16;;;;;;;11.88;6.95;;;14.10;99.90;;;;;;5353834;26;20010;-80
2024/04/12 01:40:56;;;;;;;10.70;6.75;;;14.00;99.90;;;;;;5353760;26;20076;-80
2024/04/12 01:43:32;;;;;;;11.45;7.25;;;14.00;99.90;;;;;;5347308;26;20457;-80
2024/04/12 01:46:00;;;;;;;13.48;8.43;;;14.00;99.90;;;;;;5353453;26;20000;-79
2024/04/12 01:48:28;;;;;;;14.48;9.27;;;14.00;99.90;;;;;;5382364;26;20004;-80
2024/04/12 01:50:56;;;;;;;17.50;9.90;;;14.00;99.90;;;;;;5383036;26;20000;-80
2024/04/12 01:53:23;;;;;;;16.60;10.75;;;14.00;99.90;;;;;;5347203;26;20057;-79
2024/04/12 01:55:50;;;;;;;17.02;11.63;;;14.00;99.90;;;;;;5353236;26;20003;-80
2024/04/12 01:58:19;;;;;;;18.33;11.15;;;14.00;99.90;;;;;;5382563;26;20470;-79
2024/04/12 02:00:49;;;;;;;16.02;10.48;;;14.00;99.90;;;;;;5353467;26;20012;-80
2024/04/12 02:03:17;;;;;;;17.33;10.85;;;14.00;99.90;;;;;;5383842;26;20015;-80
2024/04/12 02:05:48;;;;;;;17.40;11.25;;;14.00;99.90;;;;;;5353521;26;20000;-80
2024/04/12 02:08:19;;;;;;;14.75;9.70;;;14.00;99.90;;;;;;5381740;26;20011;-80
2024/04/12 02:10:48;;;;;;;16.85;10.60;;;14.00;99.90;;;;;;5382111;26;20012;-80
2024/04/12 02:13:17;;;;;;;16.90;10.32;;;14.00;99.90;;;;;;5411734;26;20441;-80
2024/04/12 02:15:53;;;;;;;15.52;10.18;;;14.00;99.90;;;;;;5381884;26;20314;-79
2024/04/12 02:18:21;;;;;;;15.93;9.82;;;14.00;99.90;;;;;;5359398;26;20011;-80
2024/04/12 02:20:52;;;;;;;15.35;10.55;;;14.00;99.90;;;;;;5381659;26;20026;-80
2024/04/12 02:23:21;;;;;;;15.07;8.80;;;14.00;99.90;;;;;;5381692;26;20007;-80
2024/04/12 02:25:49;;;;;;;15.40;8.77;;;14.00;99.90;;;;;;5383927;26;20077;-80
2024/04/12 02:28:18;;;;;;;15.65;9.02;;;14.00;99.90;;;;;;5381600;26;20004;-80
2024/04/12 02:30:54;;;;;;;16.15;10.38;;;14.00;99.90;;;;;;5410878;26;20000;-79
2024/04/12 02:33:30;;;;;;;17.58;11.05;;;14.00;99.90;;;;;;5375846;26;19997;-80
2024/04/12 02:35:59;;;;;;;19.10;11.68;;;14.00;99.90;;;;;;5375840;26;19997;-80
2024/04/12 02:38:28;;;;;;;19.75;11.15;;;14.00;99.90;;;;;;5342600;26;20522;-80
2024/04/12 02:40:58;;;;;;;16.27;10.00;;;14.00;99.90;;;;;;5381761;26;20459;-80
2024/04/12 02:43:29;;;;;;;13.63;8.52;;;13.90;99.90;;;;;;5381401;26;20002;-80
2024/04/12 02:45:57;;;;;;;16.98;9.77;;;13.90;99.90;;;;;;5382331;26;20456;-80
2024/04/12 02:48:25;;;;;;;17.00;10.50;;;13.90;99.90;;;;;;5353080;26;20343;-79
2024/04/12 02:50:54;;;;;;;13.40;8.98;;;13.90;99.90;;;;;;5381435;26;20004;-80
2024/04/12 02:53:23;;;;;;;15.40;9.13;;;13.90;99.90;;;;;;5381989;26;20774;-80
2024/04/12 02:56:01;;;;;;;12.50;7.70;;;13.90;99.90;;;;;;5381289;26;20019;-80
2024/04/12 02:58:40;;;;;;;13.98;8.70;;;13.90;99.90;;;;;;5381439;26;20044;-80
2024/04/12 03:01:24;;;;;;;14.98;9.40;;;13.90;99.90;;;;;;5383157;26;20411;-80
2024/04/12 03:03:56;;;;;;;14.02;8.32;;;13.90;99.90;;;;;;5383140;26;20070;-80
2024/04/12 03:06:31;;;;;;;12.18;7.65;;;13.90;99.90;;;;;;5335252;26;20008;-80
2024/04/12 03:09:00;;;;;;;12.15;7.10;;;13.90;99.90;;;;;;5341995;26;20007;-80
2024/04/12 03:11:40;;;;;;;13.18;7.60;;;13.90;99.90;;;;;;5357466;26;20015;-80
2024/04/12 03:14:09;;;;;;;13.00;8.48;;;13.90;99.90;;;;;;5379151;26;20001;-80
2024/04/12 03:16:43;;;;;;;13.25;7.60;;;13.80;99.90;;;;;;5363196;26;20000;-80
2024/04/12 03:19:13;;;;;;;12.05;7.13;;;13.80;99.90;;;;;;5383191;26;20000;-80
2024/04/12 03:21:41;;;;;;;10.48;6.35;;;13.80;99.90;;;;;;5364584;26;20471;-80
2024/04/12 03:24:10;;;;;;;11.43;6.78;;;13.80;99.90;;;;;;5380928;26;20069;-80
2024/04/12 03:26:38;;;;;;;9.82;6.47;;;13.80;99.90;;;;;;5375094;26;20079;-80
2024/04/12 03:29:05;;;;;;;9.98;5.57;;;13.90;99.90;;;;;;5329202;26;20073;-80
2024/04/12 03:31:38;;;;;;;8.38;5.15;;;13.80;99.90;;;;;;5380912;26;20000;-80
2024/04/12 03:34:07;;;;;;;9.35;6.18;;;13.90;99.90;;;;;;5375188;26;20009;-80
2024/04/12 03:41:58;;;;;;;12.73;7.95;;;13.90;99.90;;;;;;5382371;26;20011;-80
2024/04/12 03:44:30;;;;;;;13.50;7.72;;;13.80;99.90;;;;;;5380370;26;20006;-80
2024/04/12 03:47:02;;;;;;;12.65;7.28;;;13.90;99.90;;;;;;5381172;26;20012;-80
2024/04/12 03:49:32;;;;;;;10.73;6.78;;;13.80;99.90;;;;;;5382790;26;20008;-80
2024/04/12 03:51:59;;;;;;;10.45;6.40;;;13.80;99.90;;;;;;5351588;26;20001;-80
2024/04/12 03:54:28;;;;;;;9.20;5.80;;;13.90;99.90;;;;;;5380628;26;19997;-80
2024/04/12 03:57:05;;;;;;;10.18;6.47;;;13.80;99.90;;;;;;5380903;26;20012;-80
2024/04/12 03:59:34;;;;;;;9.93;6.03;;;13.80;99.90;;;;;;5375617;26;20011;-80
2024/04/12 04:02:08;;;;;;;8.43;6.10;;;13.80;99.90;;;;;;5409595;26;20379;-80
2024/04/12 04:04:38;;;;;;;9.60;6.25;;;13.80;99.90;;;;;;5381795;26;20340;-80
2024/04/12 04:07:06;;;;;;;8.45;5.88;;;13.80;99.90;;;;;;5380583;26;20010;-80
2024/04/12 04:09:33;;;;;;;10.02;6.43;;;13.80;99.90;;;;;;5380403;26;19996;-80
2024/04/12 04:12:01;;;;;;;6.75;4.28;;;13.80;99.90;;;;;;5380624;26;20000;-80
2024/04/12 04:14:32;;;;;;;7.68;4.80;;;13.80;99.90;;;;;;5380147;26;20015;-80
2024/04/12 04:17:03;;;;;;;7.32;4.55;;;13.80;99.90;;;;;;5381007;26;20348;-80
2024/04/12 04:19:39;;;;;;;7.10;4.78;;;13.80;99.90;;;;;;5351096;26;20215;-80
2024/04/12 04:22:21;;;;;;;7.60;5.13;;;13.80;99.90;;;;;;5380319;26;20000;-80
2024/04/12 04:24:52;;;;;;;7.72;4.70;;;13.80;99.90;;;;;;5380232;26;20340;-80
2024/04/12 04:27:21;;;;;;;7.32;4.07;;;13.80;99.90;;;;;;5379840;26;19996;-80
2024/04/12 04:29:51;;;;;;;7.30;4.60;;;13.80;99.90;;;;;;5379766;26;20012;-80
2024/04/12 04:32:20;;;;;;;7.00;4.45;;;13.90;99.90;;;;;;5380171;26;20467;-80
2024/04/12 04:34:55;;;;;;;8.05;4.57;;;13.80;99.90;;;;;;5345907;26;20044;-80
2024/04/12 04:37:22;;;;;;;6.00;3.88;;;13.90;99.90;;;;;;5378946;26;20468;-80
2024/04/12 04:40:09;;;;;;;7.53;4.60;;;13.80;99.90;;;;;;5379725;26;20510;-80
2024/04/12 04:42:43;;;;;;;8.23;4.47;;;13.80;99.90;;;;;;5381820;26;20012;-80
2024/04/12 04:45:10;;;;;;;6.90;4.22;;;13.90;99.90;;;;;;5380245;26;20074;-80
2024/04/12 04:47:40;;;;;;;8.60;5.45;;;13.80;99.90;;;;;;5380158;26;20333;-80
2024/04/12 04:50:10;;;;;;;7.85;4.80;;;13.90;99.90;;;;;;5379891;26;20000;-81
2024/04/12 04:52:38;;;;;;;7.25;4.45;;;13.90;99.90;;;;;;5382799;26;20000;-87
2024/04/12 04:55:12;;;;;;;9.10;5.55;;;13.90;99.90;;;;;;5379533;26;20019;-87
2024/04/12 04:57:49;;;;;;;10.18;6.50;;;13.90;99.90;;;;;;5354237;26;20364;-87
2024/04/12 05:00:22;;;;;;;9.32;6.03;;;13.90;99.90;;;;;;5382912;26;19997;-87
2024/04/12 05:02:50;;;;;;;9.18;5.70;;;13.90;99.90;;;;;;5381657;26;20008;-87
2024/04/12 05:05:22;;;;;;;12.35;7.13;;;13.90;99.90;;;;;;5380633;26;20516;-87
2024/04/12 05:08:11;;;;;;;10.75;6.22;;;13.90;99.90;;;;;;5379399;26;20004;-87
2024/04/12 05:10:39;;;;;;;10.50;6.57;;;13.90;99.90;;;;;;5316705;26;20025;-88
2024/04/12 05:13:06;;;;;;;11.48;6.75;;;13.90;99.90;;;;;;5312844;26;20027;-88
2024/04/12 05:18:12;;;;;;;7.82;5.35;;;13.90;99.90;;;;;;5345210;26;20001;-87
2024/04/12 05:20:41;;;;;;;7.78;5.32;;;13.90;99.90;;;;;;5332533;26;20012;-87
2024/04/12 05:23:14;;;;;;;6.78;4.18;;;13.90;99.90;;;;;;5376991;26;20015;-87
2024/04/12 05:25:54;;;;;;;8.20;4.60;;;14.00;99.90;;;;;;5381571;26;20011;-88
2024/04/12 05:28:21;;;;;;;7.72;4.47;;;14.00;99.90;;;;;;5379763;26;20004;-88
2024/04/12 05:30:50;;;;;;;7.47;4.75;;;14.00;99.90;;;;;;5351505;26;20464;-87
2024/04/12 05:33:19;;;;;;;6.25;4.20;;;14.00;99.90;;;;;;5408954;26;20033;-87
2024/04/12 05:35:47;;;;;;;7.22;4.38;;;14.10;99.90;;;;;;5357299;26;20000;-88
2024/04/12 05:38:20;;;;;;;7.97;4.75;;;14.10;99.90;;;;;;5351752;26;20004;-88
2024/04/12 05:40:52;;;;;;;7.80;4.43;;;14.10;99.90;;;;;;5381503;26;20005;-88
2024/04/12 05:43:21;;;;;;;8.43;5.43;;;14.20;99.90;;;;;;5380119;26;20031;-87
2024/04/12 05:45:50;;;;;;;11.13;6.07;;;14.20;99.90;;;;;;5352309;26;20036;-88
2024/04/12 05:48:18;;;;;;;8.48;5.13;;;14.30;99.90;;;;;;5350265;26;20510;-87
2024/04/12 05:50:48;;;;;;;10.18;5.28;;;14.30;99.90;;;;;;5380223;26;20044;-88
2024/04/12 05:53:16;;;;;;;7.43;4.50;;;14.30;99.90;;;;;;5375287;26;20522;-89
2024/04/12 05:55:52;;;;;;;8.25;4.65;;;14.40;99.90;;;;;;5344375;26;20082;-89
2024/04/12 05:58:23;;;;;;;8.07;5.47;;;14.50;99.90;;;;;;5365155;26;20032;-89
2024/04/12 06:00:50;;;;;;;9.68;5.07;;;14.50;99.90;;;;;;5353556;26;20066;-89
2024/04/12 06:03:17;;;;;;;8.23;4.35;;;14.60;99.90;;;;;;5379911;26;20481;-88
2024/04/12 06:05:56;;;;;;;7.95;4.88;;;14.70;99.90;;;;;;5348975;26;20001;-89
2024/04/12 06:08:24;;;;;;;8.10;4.53;;;14.70;99.90;;;;;;5385317;26;20070;-89
2024/04/12 06:10:51;;;;;;;8.70;4.88;;;14.70;99.90;;;;;;5384320;26;20000;-89
2024/04/12 06:13:20;;;;;;;7.70;4.70;;;14.70;99.90;;;;;;5384229;26;20046;-88
2024/04/12 06:15:49;;;;;;;8.07;4.78;;;14.80;99.90;;;;;;5413599;26;20004;-81
2024/04/12 06:18:18;;;;;;;8.60;4.32;;;14.80;99.90;;;;;;5361919;26;19996;-82
2024/04/12 06:20:45;;;;;;;6.85;4.38;;;14.80;99.90;;;;;;5355931;26;20012;-89
2024/04/12 06:23:14;;;;;;;8.57;4.68;;;14.80;99.90;;;;;;5369298;26;20016;-89
2024/04/12 06:25:44;;;;;;;10.20;5.20;;;14.90;99.90;;;;;;5325557;26;20008;-89
2024/04/12 06:28:12;;;;;;;10.98;6.30;;;14.90;99.90;;;;;;5412257;26;20000;-88
2024/04/12 06:30:40;;;;;;;9.90;5.75;;;14.80;99.90;;;;;;5383239;26;20044;-88
2024/04/12 06:33:07;;;;;;;7.32;4.22;;;14.90;99.90;;;;;;5383333;26;20050;-90
2024/04/12 06:35:36;;;;;;;8.63;4.95;;;14.90;99.90;;;;;;5378368;26;20015;-90
2024/04/12 06:38:08;;;;;;;9.68;5.55;;;14.90;99.90;;;;;;5340580;26;20000;-89
2024/04/12 06:40:37;;;;;;;7.13;4.45;;;14.90;99.90;;;;;;5352171;26;20083;-89
2024/04/12 06:43:07;;;;;;;8.18;5.10;;;15.00;99.90;;;;;;5412154;26;20001;-90
2024/04/12 06:45:43;;;;;;;8.20;4.70;;;15.00;99.90;;;;;;5383014;26;20000;-92
2024/04/12 06:48:16;;;;;;;10.77;6.00;;;15.00;99.90;;;;;;5383828;26;20012;-91
2024/04/12 06:50:59;;;;;;;11.80;6.80;;;15.00;99.90;;;;;;5327984;26;20008;-91
2024/04/12 06:53:27;;;;;;;9.50;5.50;;;15.10;99.90;;;;;;5385068;26;20004;-92
2024/04/12 06:55:58;;;;;;;9.98;5.80;;;15.10;99.90;;;;;;5355365;26;20348;-92
2024/04/12 06:58:26;;;;;;;10.90;6.25;;;15.20;99.90;;;;;;5383069;26;20329;-92
2024/04/12 07:00:55;;;;;;;10.13;6.20;;;15.30;99.90;;;;;;5383073;26;20001;-92
2024/04/12 07:03:23;;;;;;;9.15;5.85;;;15.30;99.90;;;;;;5412515;26;20078;-93
2024/04/12 07:05:53;;;;;;;9.70;5.43;;;15.30;99.90;;;;;;5381878;26;20070;-83
2024/04/12 07:08:26;;;;;;;9.80;6.03;;;15.40;99.90;;;;;;5381379;26;20004;-83
2024/04/12 07:10:56;;;;;;;9.27;4.97;;;15.50;99.90;;;;;;5381238;26;19996;-82
2024/04/12 07:13:27;;;;;;;9.18;5.38;;;15.50;99.90;;;;;;5369766;26;20042;-81
2024/04/12 07:15:55;;;;;;;8.43;5.05;;;15.60;99.90;;;;;;5381410;26;20000;-81
2024/04/12 07:18:23;;;;;;;12.07;6.72;;;15.60;99.90;;;;;;5380422;26;20073;-81
2024/04/12 07:20:52;;;;;;;10.13;6.65;;;15.60;99.90;;;;;;5352827;26;20011;-80
2024/04/12 07:23:19;;;;;;;11.82;6.45;;;15.60;99.90;;;;;;5380762;26;20008;-81
2024/04/12 07:25:46;;;;;;;10.57;6.72;;;15.50;99.90;;;;;;5380790;26;20004;-80
2024/04/12 07:28:14;;;;;;;12.52;6.60;;;15.50;99.90;;;;;;5409914;26;20093;-80
2024/04/12 07:30:44;;;;;;;14.23;8.07;;;15.50;99.90;;;;;;5379385;26;20073;-81
2024/04/12 07:33:14;;;;;;;13.57;8.00;;;15.50;99.90;;;;;;5354055;26;20009;-80
2024/04/12 07:35:48;;;;;;;14.40;9.00;;;15.60;99.90;;;;;;5382719;26;19996;-91
2024/04/12 07:38:15;;;;;;;13.80;8.15;;;15.50;99.90;;;;;;5370800;26;20019;-88
2024/04/12 07:40:46;;;;;;;13.35;8.88;;;15.60;99.90;;;;;;5351955;26;19997;-88
2024/04/12 07:43:13;;;;;;;13.57;8.30;;;15.50;99.90;;;;;;5370122;26;20015;-87
2024/04/12 07:45:46;;;;;;;14.00;8.05;;;15.50;99.90;;;;;;5381995;26;20015;-88
2024/04/12 07:48:23;;;;;;;11.63;7.40;;;15.60;99.90;;;;;;5352935;26;20015;-88
2024/04/12 07:50:59;;;;;;;14.82;8.45;;;15.60;99.90;;;;;;5384065;26;20011;-88
2024/04/12 07:53:30;;;;;;;15.93;9.70;;;15.70;99.90;;;;;;5354850;26;20082;-90
2024/04/12 07:56:00;;;;;;;16.80;9.10;;;15.70;99.90;;;;;;5353004;26;20328;-88
2024/04/12 07:58:34;;;;;;;14.90;7.97;;;15.70;99.90;;;;;;5381642;26;20016;-88
2024/04/12 08:01:18;;;;;;;12.98;7.38;;;15.80;99.90;;;;;;5353617;26;20003;-88
2024/04/12 08:04:05;;;;;;;15.02;7.82;;;15.80;99.90;;;;;;5383528;26;20010;-89
2024/04/12 08:06:36;;;;;;;12.73;8.02;;;15.90;99.90;;;;;;5362376;26;20067;-86
2024/04/12 08:09:21;;;;;;;10.88;7.18;;;16.00;99.90;;;;;;5326211;26;19996;-88
2024/04/12 08:11:52;;;;;;;15.82;9.32;;;15.90;99.90;;;;;;5356697;26;20028;-90
2024/04/12 08:14:22;;;;;;;12.20;6.93;;;16.00;99.90;;;;;;5382417;26;20000;-87
2024/04/12 08:16:53;;;;;;;14.77;8.57;;;16.10;99.90;;;;;;5382297;26;20039;-87
2024/04/12 08:19:22;;;;;;;;;;;16.20;99.90;;;;;;5381765;26;20015;-87
2024/04/12 08:21:54;;;;;;;14.80;8.00;;;16.30;99.90;;;;;;5381373;26;19995;-88
2024/04/12 08:24:22;;;;;;;13.52;6.63;;;16.30;99.90;;;;;;5381903;26;19996;-88
2024/04/12 08:26:51;;;;;;;12.35;7.13;;;16.40;99.90;;;;;;5380087;26;20056;-87
2024/04/12 08:29:23;;;;;;;12.35;6.72;;;16.40;99.90;;;;;;5380898;26;20007;-91
2024/04/12 08:31:59;;;;;;;9.05;6.22;;;16.40;99.90;;;;;;5381688;26;20000;-88
2024/04/12 08:34:36;;;;;;;12.55;6.40;;;16.40;99.90;;;;;;5363274;26;20003;-90
2024/04/12 08:37:12;;;;;;;12.45;5.40;;;16.50;99.90;;;;;;5382324;26;20001;-88
2024/04/12 08:39:45;;;;;;;11.00;6.60;;;16.50;99.90;;;;;;5383700;26;20015;-88
2024/04/12 08:42:16;;;;;;;11.95;7.57;;;16.60;99.90;;;;;;5411011;26;20069;-92
2024/04/12 08:44:45;;;;;;;14.93;8.03;;;16.60;99.90;;;;;;5381798;26;20000;-89
2024/04/12 08:47:16;;;;;;;10.55;6.22;;;16.60;99.90;;;;;;5381781;26;20001;-88
2024/04/12 08:50:02;;;;;;;11.38;6.80;;;16.70;99.90;;;;;;5381915;26;20011;-88
2024/04/12 08:52:43;;;;;;;10.52;6.18;;;16.80;99.90;;;;;;5374496;26;20025;-87
2024/04/12 08:55:14;;;;;;;8.77;4.90;;;16.80;99.90;;;;;;5332670;26;20333;-89
2024/04/12 08:57:47;;;;;;;10.93;6.32;;;16.90;99.90;;;;;;5345155;26;20449;-88
2024/04/12 09:00:18;;;;;;;10.55;6.38;;;17.00;99.90;;;;;;5375256;26;20001;-89
2024/04/12 09:02:58;;;;;;;10.88;6.82;;;17.10;99.90;;;;;;5378324;26;20078;-90
2024/04/12 09:05:26;;;;;;;12.60;8.00;;;17.10;99.90;;;;;;5380871;26;20004;-89
2024/04/12 09:07:58;;;;;;;17.35;9.70;;;17.10;99.90;;;;;;5354288;26;20038;-88
2024/04/12 09:10:34;;;;;;;11.23;7.15;;;17.10;99.90;;;;;;5380437;26;20077;-89
2024/04/12 09:13:08;;;;;;;9.60;6.22;;;17.10;99.90;;;;;;5409814;26;20016;-88
2024/04/12 09:15:40;;;;;;;11.05;6.55;;;17.10;99.90;;;;;;5364562;26;20000;-90
2024/04/12 09:18:15;;;;;;;9.73;6.05;;;17.10;99.90;;;;;;5411035;26;20424;-90
2024/04/12 09:20:45;;;;;;;9.88;5.95;;;17.20;99.90;;;;;;5372558;26;20468;-90
2024/04/12 09:23:15;;;;;;;14.65;6.93;;;17.30;99.90;;;;;;5322649;26;20037;-90
2024/04/12 09:25:44;;;;;;;11.23;6.90;;;17.40;99.90;;;;;;5400013;26;20506;-90
2024/04/12 09:28:13;;;;;;;13.35;8.15;;;17.50;99.90;;;;;;5355321;26;20019;-88
2024/04/12 09:33:28;;;;;;;10.55;6.55;;;17.60;99.70;;;;;;5385749;26;20001;-90
2024/04/12 09:36:04;;;;;;;11.57;6.40;;;17.70;99.30;;;;;;5380201;26;20333;-88
2024/04/12 09:38:32;;;;;;;10.15;5.47;;;17.90;99.30;;;;;;5380020;26;20004;-88
2024/04/12 09:41:12;;;;;;;10.82;6.18;;;18.00;99.20;;;;;;5374392;26;20035;-87
2024/04/12 09:43:47;;;;;;;12.20;5.78;;;18.10;98.90;;;;;;5380878;26;20039;-87
2024/04/12 09:46:23;;;;;;;11.88;5.90;;;18.10;98.70;;;;;;5329549;26;20004;-92
2024/04/12 10:39:15;;;;;;;8.82;4.70;;;18.60;95.60;;;;;;5360057;26;20011;-85
2024/04/12 10:41:45;;;;;;;8.70;4.95;;;18.80;95.60;;;;;;5383534;26;20005;-93
2024/04/12 10:44:13;;;;;;;7.85;4.50;;;19.00;95.30;;;;;;5355228;26;20011;-88
2024/04/12 10:46:42;;;;;;;11.82;4.93;;;19.30;95.20;;;;;;5383398;26;20346;-84
2024/04/12 10:49:12;;;;;;;7.97;3.63;;;19.50;94.80;;;;;;5353250;26;20339;-88
2024/04/12 10:51:39;;;;;;;10.10;4.40;;;19.70;94.50;;;;;;5325754;26;20023;-87
2024/04/12 10:54:10;;;;;;;7.85;4.57;;;19.80;94.30;;;;;;5335961;26;20011;-88
2024/04/12 10:56:45;;;;;;;8.48;4.97;;;19.80;94.30;;;;;;5355530;26;20457;-87
2024/04/12 10:59:26;;;;;;;8.52;4.22;;;19.90;94.10;;;;;;5353948;26;20005;-87
2024/04/12 11:01:59;;;;;;;8.20;4.28;;;20.10;93.80;;;;;;5386048;26;20001;-87
2024/04/12 11:05:05;;;;;;;9.63;4.43;;;20.40;93.50;;;;;;5382158;26;20011;-88
2024/04/12 11:07:19;;;;;;;9.23;5.15;;;20.60;93.10;;;;;;5371491;26;20428;-86
2024/04/12 11:10:00;;;;;;;6.00;3.10;;;20.60;92.60;;;;;;5376480;26;20012;-87
2024/04/12 11:12:40;;;;;;;8.57;3.92;;;20.50;93.00;;;;;;5367737;26;20012;-86
2024/04/12 11:32:00;;;;;;;8.82;3.53;;;20.20;90.20;;;;;;5385599;26;19997;-93
2024/04/12 11:34:32;;;;;;;8.20;4.22;;;20.60;88.80;;;;;;5355349;26;20000;-91
2024/04/12 11:37:10;;;;;;;5.88;3.20;;;20.90;87.50;;;;;;5410896;26;20012;-90
2024/04/12 11:39:38;;;;;;;6.23;3.10;;;21.30;85.70;;;;;;5383071;26;20028;-91
2024/04/12 11:42:06;;;;;;;7.20;3.40;;;21.60;83.80;;;;;;5354072;26;20011;-89
2024/04/12 11:44:34;;;;;;;7.88;3.97;;;21.60;82.40;;;;;;5353529;26;20000;-88
2024/04/12 11:47:03;;;;;;;6.50;3.22;;;21.70;80.90;;;;;;5411658;26;20473;-89
2024/04/12 11:49:49;;;;;;;10.63;4.18;;;21.90;80.40;;;;;;5382234;26;20011;-88
2024/04/12 11:52:17;;;;;;;7.07;3.10;;;22.10;79.30;;;;;;5386756;26;20467;-89
2024/04/12 11:54:53;;;;;;;7.20;3.13;;;22.50;79.00;;;;;;5382954;26;20004;-89
2024/04/12 11:57:22;;;;;;;6.65;3.35;;;22.90;78.10;;;;;;5355695;26;20078;-90
2024/04/12 11:59:59;;;;;;;10.43;3.53;;;23.00;77.40;;;;;;5356354;26;20011;-91
2024/04/12 12:02:42;;;;;;;7.13;3.15;;;23.00;76.20;;;;;;5411557;26;20000;-87
2024/04/12 12:05:16;;;;;;;7.40;3.70;;;22.90;75.40;;;;;;5361306;26;20005;-90
2024/04/12 12:07:46;;;;;;;5.20;2.78;;;22.90;75.80;;;;;;5416529;26;19996;-90
2024/04/12 12:10:14;;;;;;;6.05;2.72;;;22.80;76.10;;;;;;5393720;26;20011;-89
2024/04/12 12:12:42;;;;;;;7.95;3.42;;;22.60;76.00;;;;;;5348826;26;20005;-85
2024/04/12 12:15:10;;;;;;;6.32;2.75;;;22.30;75.60;;;;;;5333494;26;20000;-82
2024/04/12 12:17:37;;;;;;;6.28;3.15;;;22.00;76.20;;;;;;5376380;26;20004;-90
2024/04/12 12:20:18;;;;;;;6.47;2.75;;;21.80;76.80;;;;;;5330147;26;20499;-91
2024/04/12 12:22:49;;;;;;;7.00;2.70;;;21.60;77.20;;;;;;5291900;26;20001;-90
2024/04/12 12:25:16;;;;;;;5.80;3.25;;;21.50;77.20;;;;;;5317031;26;20109;-87
2024/04/12 12:27:43;;;;;;;5.30;2.08;;;21.30;77.50;;;;;;5312351;26;20000;-90
2024/04/12 12:30:14;;;;;;;5.63;2.70;;;21.30;78.20;;;;;;5322407;26;20012;-90
2024/04/12 12:32:44;;;;;;;4.63;2.05;;;21.30;78.40;;;;;;5351715;26;20007;-90
2024/04/12 12:35:21;;;;;;;5.68;2.10;;;21.40;78.30;;;;;;5351013;26;19997;-90
2024/04/12 12:37:49;;;;;;;5.20;1.50;;;21.40;77.90;;;;;;5344747;26;20005;-87
2024/04/12 12:40:21;;;;;;;4.95;2.13;;;21.40;78.00;;;;;;5372111;26;20014;-87
2024/04/12 12:42:51;;;;;;;6.70;1.95;;;21.40;77.30;;;;;;5352149;26;19996;-92
2024/04/12 12:45:19;;;;;;;4.38;2.25;;;21.30;77.70;;;;;;5380461;26;20494;-90
2024/04/12 12:47:47;;;;;;;4.70;1.90;;;21.30;78.10;;;;;;5351150;26;20015;-88
2024/04/12 12:50:24;;;;;;;4.20;1.90;;;21.40;78.60;;;;;;5379172;26;20004;-91
2024/04/12 12:52:51;;;;;;;6.00;1.77;;;21.50;78.10;;;;;;5344991;26;20012;-90
2024/04/12 12:55:22;;;;;;;2.67;1.08;;;21.50;77.90;;;;;;5350241;26;20072;-89
2024/04/12 12:58:08;;;;;;;3.28;1.20;;;21.50;78.20;;;;;;5350596;26;20000;-87
2024/04/12 13:00:42;;;;;;;6.20;1.65;;;21.50;77.20;;;;;;5331831;26;20079;-88
2024/04/12 13:03:17;;;;;;;4.15;1.15;;;21.50;76.70;;;;;;5360535;26;20004;-90
2024/04/12 13:05:48;;;;;;;5.47;1.30;;;21.50;76.40;;;;;;5383196;26;20011;-90
2024/04/12 13:08:16;;;;;;;4.72;1.50;;;21.50;76.70;;;;;;5353774;26;20000;-87
2024/04/12 13:10:49;;;;;;;2.95;1.17;;;21.50;76.10;;;;;;5381398;26;20004;-89
2024/04/12 13:13:23;;;;;;;3.88;1.40;;;21.50;76.40;;;;;;5381618;26;20004;-85
2024/04/12 13:15:57;;;;;;;6.00;1.83;;;21.50;76.30;;;;;;5383694;26;20008;-89
2024/04/12 13:18:29;;;;;;;4.85;1.70;;;21.40;75.20;;;;;;5358869;26;20008;-90
2024/04/12 13:20:57;;;;;;;2.80;1.23;;;21.30;75.60;;;;;;5385122;26;19997;-92
2024/04/12 13:23:25;;;;;;;5.32;1.90;;;21.30;76.30;;;;;;5384080;26;20077;-89
2024/04/12 13:25:53;;;;;;;5.28;1.60;;;21.30;75.90;;;;;;5377862;26;20015;-87
2024/04/12 13:28:21;;;;;;;3.75;1.23;;;21.30;76.20;;;;;;5353223;26;20046;-87
2024/04/12 13:30:50;;;;;;;4.75;1.38;;;21.30;75.50;;;;;;5385120;26;20024;-87
2024/04/12 13:33:18;;;;;;;5.32;1.40;;;21.20;74.90;;;;;;5383590;26;20015;-89
2024/04/12 13:35:46;;;;;;;3.28;1.08;;;21.20;74.50;;;;;;5345341;26;20009;-91
2024/04/12 13:38:15;;;;;;;5.72;1.20;;;21.20;74.60;;;;;;5384311;26;20000;-89
2024/04/12 13:40:49;;;;;;;3.08;0.90;;;21.30;74.40;;;;;;5384641;26;20077;-89
2024/04/12 13:43:16;;;;;;;2.20;0.80;;;21.30;74.20;;;;;;5349004;26;20011;-88
2024/04/12 13:51:19;;;;;;;1.92;0.80;;;21.40;74.10;;;;;;5368669;26;20000;-90
2024/04/12 13:53:51;;;;;;;2.33;0.77;;;21.40;73.50;;;;;;5384193;26;20019;-87
2024/04/12 13:56:27;;;;;;;4.25;1.20;;;21.40;73.70;;;;;;5382882;26;20007;-90
2024/04/12 13:58:59;;;;;;;2.20;1.05;;;21.40;73.10;;;;;;5350500;26;20349;-92
2024/04/12 14:01:31;;;;;;;2.05;0.80;;;21.30;73.90;;;;;;5385216;26;20011;-88
2024/04/12 14:04:03;;;;;;;4.57;1.52;;;21.30;73.60;;;;;;5383819;26;20008;-90
2024/04/12 14:06:36;;;;;;;3.78;1.60;;;21.30;73.80;;;;;;5383811;26;20033;-90
2024/04/12 14:09:13;;;;;;;2.78;0.77;;;21.40;73.90;;;;;;5413697;26;20069;-91
2024/04/12 14:11:41;;;;;;;2.53;1.08;;;21.50;74.30;;;;;;5363831;26;20015;-88
2024/04/12 14:14:09;;;;;;;4.95;1.50;;;21.70;73.90;;;;;;5354453;26;20004;-85
2024/04/12 14:16:42;;;;;;;4.30;1.20;;;21.80;73.60;;;;;;5378366;26;20029;-91
2024/04/12 14:19:19;;;;;;;3.63;1.77;;;22.00;73.70;;;;;;5375328;26;20073;-90
2024/04/12 14:21:56;;;;;;;4.72;1.88;;;22.20;73.50;;;;;;5361120;26;20054;-94
2024/04/12 14:27:10;;;;;;;4.28;2.35;;;22.10;73.60;;;;;;5359242;26;20006;-94
2024/04/12 14:29:39;;;;;;;4.70;2.08;;;21.90;74.40;;;;;;5356266;26;20011;-89
2024/04/12 14:32:07;;;;;;;4.90;2.60;;;21.70;74.40;;;;;;5326123;26;20432;-89